Time;durP1;ratioP1;P1;durP2;ratioP2;P2;SDS_P1;SDS_P2;PMS_P1;PMS_P2;Temp;Humidity;BMP_temperature;BMP_pressure;BME280_temperature;BME280_humidity;BME280_pressure;Samples;Min_cycle;Max_cycle;Signal;HPM_P1;HPM_P2
2024/01/26 00:00:41;;;;;;;24.98;9.07;;;;;;;;;;4982585;28;20042;-65
2024/01/26 00:03:08;;;;;;;24.40;10.20;;;;;;;;;;4989634;28;20594;-67
2024/01/26 00:05:34;;;;;;;21.63;8.52;;;;;;;;;;4993142;28;20074;-67
2024/01/26 00:08:03;;;;;;;22.80;10.38;;;;;;;;;;4977422;28;20047;-66
2024/01/26 00:10:30;;;;;;;23.77;10.15;;;;;;;;;;4974638;28;20061;-66
2024/01/26 00:12:57;;;;;;;22.63;11.27;;;;;;;;;;4972007;28;20226;-67
2024/01/26 00:15:23;;;;;;;21.55;9.48;;;;;;;;;;4971850;28;20043;-66
2024/01/26 00:17:50;;;;;;;25.05;10.05;;;;;;;;;;4992836;28;20141;-67
2024/01/26 00:20:17;;;;;;;28.88;11.20;;;;;;;;;;4999351;28;20046;-68
2024/01/26 00:22:46;;;;;;;26.95;10.48;;;;;;;;;;5004457;28;20053;-67
2024/01/26 00:25:14;;;;;;;;;;;;;;;;;;5002229;28;20046;-66
2024/01/26 00:27:42;;;;;;;20.90;9.02;;;;;;;;;;5003640;28;19925;-67
2024/01/26 00:30:09;;;;;;;20.98;9.90;;;;;;;;;;4998467;28;20132;-67
2024/01/26 00:32:36;;;;;;;20.75;9.85;;;;;;;;;;5000798;28;20054;-67
2024/01/26 00:35:04;;;;;;;20.50;10.23;;;;;;;;;;4999300;28;20069;-66
2024/01/26 00:37:31;;;;;;;22.70;9.63;;;;;;;;;;5015138;28;20073;-67
2024/01/26 00:39:57;;;;;;;21.63;10.05;;;;;;;;;;5005746;28;20050;-67
2024/01/26 00:42:26;;;;;;;34.75;12.80;;;;;;;;;;4993281;28;20054;-67
2024/01/26 00:44:53;;;;;;;22.63;10.50;;;;;;;;;;4990049;28;20078;-68
2024/01/26 00:47:20;;;;;;;23.73;10.45;;;;;;;;;;4992657;28;20046;-66
2024/01/26 00:49:49;;;;;;;22.60;9.88;;;;;;;;;;4997106;28;20076;-66
2024/01/26 00:52:17;;;;;;;23.02;8.95;;;;;;;;;;5025867;28;20046;-67
2024/01/26 00:54:47;;;;;;;22.20;9.50;;;;;;;;;;4996047;28;20057;-66
2024/01/26 00:57:17;;;;;;;21.75;9.98;;;;;;;;;;4988634;28;20582;-66
2024/01/26 00:59:45;;;;;;;23.38;9.30;;;;;;;;;;5003437;28;20060;-67
2024/01/26 01:02:12;;;;;;;17.85;8.70;;;;;;;;;;4987889;28;20113;-66
2024/01/26 01:04:39;;;;;;;21.15;9.82;;;;;;;;;;4986368;28;20058;-66
2024/01/26 01:07:06;;;;;;;22.45;9.95;;;;;;;;;;4975735;28;20058;-66
2024/01/26 01:09:34;;;;;;;18.55;8.68;;;;;;;;;;4988375;28;20046;-67
2024/01/26 01:12:01;;;;;;;21.77;9.68;;;;;;;;;;4985541;28;20074;-66
2024/01/26 01:14:29;;;;;;;19.70;8.83;;;;;;;;;;4991732;28;20045;-65
2024/01/26 01:16:57;;;;;;;18.92;8.75;;;;;;;;;;4974151;28;20092;-66
2024/01/26 01:19:24;;;;;;;18.80;9.35;;;;;;;;;;4996483;28;20057;-66
2024/01/26 01:21:51;;;;;;;19.80;9.07;;;;;;;;;;4994485;28;20085;-65
2024/01/26 01:24:18;;;;;;;20.98;9.52;;;;;;;;;;4996280;28;20160;-65
2024/01/26 01:26:47;;;;;;;18.73;8.88;;;;;;;;;;4979434;28;20046;-65
2024/01/26 01:29:14;;;;;;;19.02;8.98;;;;;;;;;;4999417;28;20122;-67
2024/01/26 01:31:41;;;;;;;16.52;7.72;;;;;;;;;;4974184;28;20118;-65
2024/01/26 01:34:09;;;;;;;22.05;8.65;;;;;;;;;;4992917;28;20043;-66
2024/01/26 01:36:36;;;;;;;19.70;7.78;;;;;;;;;;4976234;28;20059;-65
2024/01/26 01:39:03;;;;;;;20.85;9.23;;;;;;;;;;4981556;28;20055;-65
2024/01/26 01:41:30;;;;;;;13.57;6.35;;;;;;;;;;4978189;28;20120;-66
2024/01/26 01:43:57;;;;;;;16.10;7.95;;;;;;;;;;4988401;28;20046;-65
2024/01/26 01:46:24;;;;;;;18.30;7.97;;;;;;;;;;4974242;28;20103;-65
2024/01/26 01:48:52;;;;;;;21.70;8.50;;;;;;;;;;4979199;28;20050;-66
2024/01/26 01:51:21;;;;;;;17.33;7.93;;;;;;;;;;4990333;28;20046;-66
2024/01/26 01:53:49;;;;;;;18.30;8.05;;;;;;;;;;4988246;28;20106;-65
2024/01/26 01:56:16;;;;;;;13.50;6.85;;;;;;;;;;4974866;28;20062;-66
2024/01/26 01:58:56;;;;;;;16.80;7.97;;;;;;;;;;4979075;28;20062;-66
2024/01/26 02:01:23;;;;;;;16.90;8.48;;;;;;;;;;4981101;28;20054;-64
2024/01/26 02:03:49;;;;;;;15.52;7.07;;;;;;;;;;5016129;28;20047;-64
2024/01/26 02:06:16;;;;;;;17.38;7.97;;;;;;;;;;4988339;28;20077;-65
2024/01/26 02:08:47;;;;;;;17.38;8.30;;;;;;;;;;4954045;28;20065;-65
2024/01/26 02:11:13;;;;;;;17.48;8.55;;;;;;;;;;4972808;28;20072;-67
2024/01/26 02:13:40;;;;;;;14.95;8.05;;;;;;;;;;4979985;28;20054;-66
2024/01/26 02:16:07;;;;;;;18.30;9.20;;;;;;;;;;4968115;28;20050;-66
2024/01/26 02:18:34;;;;;;;23.98;7.93;;;;;;;;;;4992598;28;20058;-67
2024/01/26 02:21:00;;;;;;;18.38;8.25;;;;;;;;;;4974869;28;20156;-66
2024/01/26 02:23:29;;;;;;;19.20;8.13;;;;;;;;;;4983825;28;20065;-65
2024/01/26 02:25:55;;;;;;;18.75;8.93;;;;;;;;;;4977754;28;20050;-66
2024/01/26 02:28:23;;;;;;;15.75;7.35;;;;;;;;;;4969739;28;20054;-66
2024/01/26 02:30:49;;;;;;;16.08;7.22;;;;;;;;;;4957444;28;20050;-66
2024/01/26 02:33:16;;;;;;;17.98;8.48;;;;;;;;;;4966228;28;20132;-65
2024/01/26 02:35:43;;;;;;;17.15;7.97;;;;;;;;;;4958616;28;20058;-64
2024/01/26 02:38:10;;;;;;;19.67;8.55;;;;;;;;;;4989473;28;20053;-66
2024/01/26 02:40:38;;;;;;;13.70;6.72;;;;;;;;;;4988553;28;20072;-66
2024/01/26 02:43:05;;;;;;;16.23;7.82;;;;;;;;;;4976654;28;20090;-66
2024/01/26 02:45:32;;;;;;;18.27;7.93;;;;;;;;;;4978028;28;20057;-65
2024/01/26 02:47:59;;;;;;;13.07;7.13;;;;;;;;;;4976084;28;20062;-66
2024/01/26 02:50:26;;;;;;;13.93;6.60;;;;;;;;;;4981850;28;20448;-65
2024/01/26 02:52:55;;;;;;;15.30;6.93;;;;;;;;;;4974770;28;20454;-66
2024/01/26 02:55:22;;;;;;;11.95;6.72;;;;;;;;;;4978282;28;20054;-66
2024/01/26 02:57:50;;;;;;;13.63;5.72;;;;;;;;;;4974870;28;20073;-65
2024/01/26 03:00:17;;;;;;;11.77;6.30;;;;;;;;;;4985447;28;20054;-66
2024/01/26 03:02:44;;;;;;;12.45;6.43;;;;;;;;;;4977256;28;20064;-65
2024/01/26 03:05:11;;;;;;;13.85;6.10;;;;;;;;;;4952539;28;20052;-65
2024/01/26 03:07:38;;;;;;;11.30;5.70;;;;;;;;;;4996774;28;20053;-66
2024/01/26 03:10:06;;;;;;;14.20;6.28;;;;;;;;;;4976758;28;20501;-67
2024/01/26 03:12:33;;;;;;;10.27;4.95;;;;;;;;;;4990933;28;20074;-65
2024/01/26 03:15:02;;;;;;;10.48;5.45;;;;;;;;;;4964553;28;20145;-66
2024/01/26 03:17:29;;;;;;;;;;;;;;;;;;4957440;28;20051;-65
2024/01/26 03:19:57;;;;;;;16.70;5.22;;;;;;;;;;4991015;28;19926;-65
2024/01/26 03:22:24;;;;;;;;;;;;;;;;;;4962424;28;20047;-65
2024/01/26 03:24:51;;;;;;;11.95;4.57;;;;;;;;;;4972890;28;20020;-66
2024/01/26 03:27:17;;;;;;;11.38;5.03;;;;;;;;;;4970231;28;20138;-66
2024/01/26 03:29:44;;;;;;;9.23;4.68;;;;;;;;;;4982028;28;20101;-67
2024/01/26 03:32:12;;;;;;;8.88;4.13;;;;;;;;;;4972085;28;20042;-66
2024/01/26 03:34:39;;;;;;;10.57;4.20;;;;;;;;;;4978383;28;20192;-66
2024/01/26 03:37:06;;;;;;;8.85;4.47;;;;;;;;;;4986185;28;20117;-66
2024/01/26 03:39:33;;;;;;;7.50;3.72;;;;;;;;;;4993390;28;20124;-65
2024/01/26 03:42:00;;;;;;;7.63;3.53;;;;;;;;;;4990638;28;20076;-66
2024/01/26 03:44:27;;;;;;;9.20;4.18;;;;;;;;;;4975847;28;20041;-66
2024/01/26 03:46:53;;;;;;;7.13;3.63;;;;;;;;;;4977381;28;20065;-67
2024/01/26 03:49:21;;;;;;;7.13;3.78;;;;;;;;;;4971205;28;20043;-65
2024/01/26 03:51:49;;;;;;;10.75;3.65;;;;;;;;;;4958465;28;20090;-67
2024/01/26 03:54:15;;;;;;;10.45;3.78;;;;;;;;;;4956249;28;20050;-66
2024/01/26 03:56:43;;;;;;;8.10;3.83;;;;;;;;;;4980932;28;20057;-67
2024/01/26 03:59:10;;;;;;;9.95;4.15;;;;;;;;;;4980976;28;20148;-65
2024/01/26 04:01:36;;;;;;;7.30;3.83;;;;;;;;;;4974918;28;20065;-66
2024/01/26 04:04:03;;;;;;;9.63;3.75;;;;;;;;;;4977130;28;20139;-66
2024/01/26 04:06:31;;;;;;;8.32;3.63;;;;;;;;;;4980391;28;20057;-64
2024/01/26 04:08:59;;;;;;;6.57;2.95;;;;;;;;;;4983822;28;20054;-68
2024/01/26 04:11:25;;;;;;;9.52;3.58;;;;;;;;;;4985316;28;20144;-65
2024/01/26 04:13:52;;;;;;;11.75;4.00;;;;;;;;;;4979958;28;20062;-66
2024/01/26 04:16:19;;;;;;;7.25;3.60;;;;;;;;;;4978972;28;21420;-65
2024/01/26 04:18:47;;;;;;;8.18;3.05;;;;;;;;;;4984669;28;20062;-66
2024/01/26 04:21:14;;;;;;;7.20;3.10;;;;;;;;;;4992968;28;20053;-65
2024/01/26 04:23:42;;;;;;;5.63;3.08;;;;;;;;;;4975195;28;20055;-67
2024/01/26 04:26:08;;;;;;;6.93;2.95;;;;;;;;;;4979932;28;20046;-66
2024/01/26 04:28:35;;;;;;;5.72;2.72;;;;;;;;;;4978764;28;20047;-66
2024/01/26 04:31:02;;;;;;;7.63;3.70;;;;;;;;;;4990525;28;20058;-66
2024/01/26 04:33:29;;;;;;;5.40;2.85;;;;;;;;;;4994188;28;20081;-67
2024/01/26 04:35:56;;;;;;;5.80;2.45;;;;;;;;;;4968454;28;20058;-68
2024/01/26 04:38:23;;;;;;;6.63;3.00;;;;;;;;;;4958125;28;20055;-68
2024/01/26 04:40:51;;;;;;;6.57;2.58;;;;;;;;;;4966190;28;20066;-67
2024/01/26 04:43:18;;;;;;;5.53;2.63;;;;;;;;;;4960315;28;20061;-65
2024/01/26 04:45:45;;;;;;;10.27;2.97;;;;;;;;;;4973628;28;20054;-66
2024/01/26 04:48:12;;;;;;;5.78;2.88;;;;;;;;;;4981510;28;20050;-66
2024/01/26 04:50:39;;;;;;;6.30;3.22;;;;;;;;;;4990022;28;20070;-68
2024/01/26 04:53:06;;;;;;;8.20;3.33;;;;;;;;;;4986400;28;20073;-66
2024/01/26 04:55:33;;;;;;;7.50;3.25;;;;;;;;;;4979802;28;20092;-66
2024/01/26 04:58:01;;;;;;;7.00;3.28;;;;;;;;;;4972640;28;20096;-65
2024/01/26 05:00:28;;;;;;;;;;;;;;;;;;4991859;28;20064;-66
2024/01/26 05:02:54;;;;;;;6.82;3.00;;;;;;;;;;4985714;28;19929;-66
2024/01/26 05:05:21;;;;;;;10.55;3.70;;;;;;;;;;4979919;28;20074;-66
2024/01/26 05:07:48;;;;;;;9.35;3.58;;;;;;;;;;4988821;28;20054;-64
2024/01/26 05:10:15;;;;;;;7.63;2.88;;;;;;;;;;4977949;28;20122;-65
2024/01/26 05:12:42;;;;;;;7.75;3.63;;;;;;;;;;4992785;28;20081;-65
2024/01/26 05:15:11;;;;;;;5.90;2.80;;;;;;;;;;4965420;28;20126;-65
2024/01/26 05:17:38;;;;;;;12.45;3.67;;;;;;;;;;4956304;28;20121;-65
2024/01/26 05:20:06;;;;;;;7.00;3.58;;;;;;;;;;4953742;28;20138;-66
2024/01/26 05:22:33;;;;;;;7.10;3.45;;;;;;;;;;4958681;28;20054;-64
2024/01/26 05:25:00;;;;;;;9.05;3.80;;;;;;;;;;4967353;28;20308;-65
2024/01/26 05:27:27;;;;;;;7.03;3.72;;;;;;;;;;5031613;28;20137;-66
2024/01/26 05:29:54;;;;;;;7.75;3.38;;;;;;;;;;4983898;28;20054;-68
2024/01/26 05:32:23;;;;;;;8.38;3.55;;;;;;;;;;4977240;28;20042;-64
2024/01/26 05:34:50;;;;;;;7.75;3.15;;;;;;;;;;4968827;28;20055;-68
2024/01/26 05:37:16;;;;;;;7.15;3.47;;;;;;;;;;4959620;28;20153;-65
2024/01/26 05:39:43;;;;;;;6.28;2.90;;;;;;;;;;4955452;28;20051;-66
2024/01/26 05:42:10;;;;;;;8.18;2.80;;;;;;;;;;4958460;28;20590;-67
2024/01/26 05:44:36;;;;;;;11.23;3.65;;;;;;;;;;4963800;28;20124;-65
2024/01/26 05:47:03;;;;;;;6.70;3.28;;;;;;;;;;4982206;28;20053;-65
2024/01/26 05:49:33;;;;;;;8.85;3.53;;;;;;;;;;4979337;28;20133;-66
2024/01/26 05:51:59;;;;;;;9.38;3.75;;;;;;;;;;4972985;28;20053;-66
2024/01/26 05:54:26;;;;;;;7.75;3.05;;;;;;;;;;4974836;28;20064;-66
2024/01/26 05:56:53;;;;;;;7.72;3.20;;;;;;;;;;4976548;28;20054;-66
2024/01/26 05:59:20;;;;;;;5.63;2.95;;;;;;;;;;4980265;28;20150;-65
2024/01/26 06:01:47;;;;;;;7.75;3.55;;;;;;;;;;4980868;28;20388;-66
2024/01/26 06:04:14;;;;;;;7.80;3.85;;;;;;;;;;4973925;28;20148;-65
2024/01/26 06:06:42;;;;;;;11.80;4.97;;;;;;;;;;4990429;28;20046;-64
2024/01/26 06:09:10;;;;;;;15.38;4.35;;;;;;;;;;4978708;28;20054;-67
2024/01/26 06:11:37;;;;;;;5.40;3.17;;;;;;;;;;4977171;28;20051;-65
2024/01/26 06:14:03;;;;;;;11.10;4.10;;;;;;;;;;4968846;28;20060;-64
2024/01/26 06:16:30;;;;;;;6.45;3.47;;;;;;;;;;4982782;28;20051;-64
2024/01/26 06:18:57;;;;;;;11.35;4.78;;;;;;;;;;4986348;28;20144;-64
2024/01/26 06:21:27;;;;;;;6.78;3.53;;;;;;;;;;4985755;28;20054;-65
2024/01/26 06:23:57;;;;;;;7.65;3.53;;;;;;;;;;4973191;28;20142;-64
2024/01/26 06:26:31;;;;;;;7.10;3.60;;;;;;;;;;4974654;28;20081;-65
2024/01/26 06:28:58;;;;;;;7.65;3.35;;;;;;;;;;4975940;28;20070;-64
2024/01/26 06:31:26;;;;;;;13.18;5.47;;;;;;;;;;4973694;28;20425;-64
2024/01/26 06:33:56;;;;;;;9.02;3.53;;;;;;;;;;4961122;28;20066;-64
2024/01/26 06:36:24;;;;;;;7.47;3.60;;;;;;;;;;5001242;28;20047;-65
2024/01/26 06:38:51;;;;;;;8.98;3.90;;;;;;;;;;4975946;28;20054;-65
2024/01/26 06:41:23;;;;;;;7.15;3.17;;;;;;;;;;4975876;28;20048;-64
2024/01/26 06:43:58;;;;;;;10.82;3.65;;;;;;;;;;4969284;28;21564;-64
2024/01/26 06:46:25;;;;;;;6.28;3.22;;;;;;;;;;4974813;28;20049;-65
2024/01/26 06:48:52;;;;;;;9.05;3.30;;;;;;;;;;4995481;28;20049;-65
2024/01/26 06:51:20;;;;;;;7.32;3.50;;;;;;;;;;4985683;28;20085;-65
2024/01/26 06:53:49;;;;;;;7.47;3.60;;;;;;;;;;4980398;28;20144;-64
2024/01/26 06:56:17;;;;;;;7.53;2.90;;;;;;;;;;4977969;28;20148;-64
2024/01/26 06:58:45;;;;;;;8.05;3.65;;;;;;;;;;4978653;28;20068;-64
2024/01/26 07:01:12;;;;;;;9.65;3.38;;;;;;;;;;4980287;28;20054;-65
2024/01/26 07:03:39;;;;;;;6.18;2.97;;;;;;;;;;4974149;28;20061;-67
2024/01/26 07:06:06;;;;;;;7.45;3.55;;;;;;;;;;4969400;28;20050;-66
2024/01/26 07:08:39;;;;;;;7.25;2.83;;;;;;;;;;4971945;28;20098;-68
2024/01/26 07:11:06;;;;;;;5.38;2.63;;;;;;;;;;4963394;28;20058;-68
2024/01/26 07:13:33;;;;;;;7.45;3.40;;;;;;;;;;4975956;28;20108;-67
2024/01/26 07:16:01;;;;;;;4.10;2.10;;;;;;;;;;4948267;28;20066;-67
2024/01/26 07:18:28;;;;;;;6.25;3.05;;;;;;;;;;4991321;28;20182;-68
2024/01/26 07:20:55;;;;;;;8.02;3.35;;;;;;;;;;4959909;28;20062;-68
2024/01/26 07:23:22;;;;;;;7.13;3.28;;;;;;;;;;4958813;28;20062;-68
2024/01/26 07:25:49;;;;;;;6.68;3.20;;;;;;;;;;4970203;28;20058;-67
2024/01/26 07:28:16;;;;;;;7.05;3.10;;;;;;;;;;4986841;28;20077;-68
2024/01/26 07:30:43;;;;;;;7.43;3.13;;;;;;;;;;4977218;28;20148;-68
2024/01/26 07:33:11;;;;;;;6.85;2.92;;;;;;;;;;4978755;28;20050;-68
2024/01/26 07:35:38;;;;;;;6.47;2.80;;;;;;;;;;4957218;28;20050;-69
2024/01/26 07:38:05;;;;;;;5.13;2.60;;;;;;;;;;4957918;28;20058;-69
2024/01/26 07:40:33;;;;;;;6.10;2.80;;;;;;;;;;4988680;28;20054;-70
2024/01/26 07:42:59;;;;;;;4.63;2.13;;;;;;;;;;4958119;28;20082;-68
2024/01/26 07:45:26;;;;;;;12.38;3.72;;;;;;;;;;4969606;28;20127;-66
2024/01/26 07:47:56;;;;;;;6.75;2.97;;;;;;;;;;4978706;28;20046;-68
2024/01/26 07:50:24;;;;;;;7.90;3.85;;;;;;;;;;4982631;28;20054;-68
2024/01/26 07:52:51;;;;;;;7.03;3.50;;;;;;;;;;4983707;28;20094;-68
2024/01/26 07:55:19;;;;;;;7.97;4.13;;;;;;;;;;4980567;28;20204;-69
2024/01/26 07:57:46;;;;;;;6.13;3.10;;;;;;;;;;4978688;28;20049;-65
2024/01/26 08:00:14;;;;;;;5.45;3.03;;;;;;;;;;4984604;28;20046;-65
2024/01/26 08:02:40;;;;;;;4.68;2.35;;;;;;;;;;4993666;28;20069;-65
2024/01/26 08:05:08;;;;;;;5.63;3.03;;;;;;;;;;4973767;28;20116;-65
2024/01/26 08:07:37;;;;;;;5.65;2.83;;;;;;;;;;4974055;28;20066;-66
2024/01/26 08:10:07;;;;;;;4.15;2.28;;;;;;;;;;4977730;28;20074;-65
2024/01/26 08:12:40;;;;;;;6.75;3.20;;;;;;;;;;4955672;28;20042;-66
2024/01/26 08:15:07;;;;;;;5.40;2.33;;;;;;;;;;4965595;28;20054;-67
2024/01/26 08:17:34;;;;;;;6.80;3.50;;;;;;;;;;4970682;28;20361;-68
2024/01/26 08:20:05;;;;;;;6.82;2.70;;;;;;;;;;4982862;28;20149;-68
2024/01/26 08:22:32;;;;;;;8.55;3.25;;;;;;;;;;4966417;28;20062;-67
2024/01/26 08:25:09;;;;;;;7.13;3.35;;;;;;;;;;4983660;28;20485;-67
2024/01/26 08:27:43;;;;;;;5.97;2.85;;;;;;;;;;4983298;28;20050;-69
2024/01/26 08:30:10;;;;;;;6.35;3.70;;;;;;;;;;4989065;28;20064;-66
2024/01/26 08:32:37;;;;;;;7.40;3.85;;;;;;;;;;4979566;28;20105;-68
2024/01/26 08:35:09;;;;;;;6.38;3.50;;;;;;;;;;4987953;28;20116;-67
2024/01/26 08:37:36;;;;;;;16.83;7.75;;;;;;;;;;4966286;28;20065;-67
2024/01/26 08:40:13;;;;;;;8.85;4.10;;;;;;;;;;4983284;28;20070;-67
2024/01/26 08:42:40;;;;;;;6.93;3.55;;;;;;;;;;4976633;28;20069;-66
2024/01/26 08:45:08;;;;;;;5.80;3.15;;;;;;;;;;4961809;28;20077;-64
2024/01/26 08:47:40;;;;;;;7.45;3.38;;;;;;;;;;4961799;28;20054;-67
2024/01/26 08:50:07;;;;;;;10.07;3.45;;;;;;;;;;4980714;28;20070;-64
2024/01/26 08:52:35;;;;;;;8.85;2.97;;;;;;;;;;4972767;28;20058;-65
2024/01/26 08:55:02;;;;;;;7.47;3.17;;;;;;;;;;4980671;28;20059;-65
2024/01/26 08:57:30;;;;;;;8.07;3.55;;;;;;;;;;4983251;28;20293;-65
2024/01/26 08:59:58;;;;;;;;;;;;;;;;;;4984161;28;20042;-66
2024/01/26 09:02:25;;;;;;;6.45;2.75;;;;;;;;;;5002382;28;19930;-66
2024/01/26 09:04:55;;;;;;;10.63;3.80;;;;;;;;;;4988739;28;20114;-66
2024/01/26 09:07:30;;;;;;;13.52;2.80;;;;;;;;;;4967769;28;20061;-64
2024/01/26 09:09:57;;;;;;;7.90;2.40;;;;;;;;;;4968130;28;20073;-65
2024/01/26 09:12:24;;;;;;;3.25;1.75;;;;;;;;;;4976873;28;20082;-65
2024/01/26 09:14:52;;;;;;;5.68;2.30;;;;;;;;;;4991360;28;20053;-65
2024/01/26 09:17:22;;;;;;;3.28;1.52;;;;;;;;;;4986891;28;20105;-65
2024/01/26 09:19:49;;;;;;;8.05;1.90;;;;;;;;;;4980708;28;20086;-65
2024/01/26 09:22:21;;;;;;;4.53;1.42;;;;;;;;;;4971959;28;20043;-65
2024/01/26 09:27:45;;;;;;;4.45;1.20;;;;;;;;;;4990062;28;20077;-64
2024/01/26 09:30:28;;;;;;;3.30;0.80;;;;;;;;;;4979438;28;20081;-64
2024/01/26 09:32:56;;;;;;;2.95;0.73;;;;;;;;;;4972660;28;20289;-65
2024/01/26 09:35:23;;;;;;;3.72;0.77;;;;;;;;;;4987200;28;20050;-65
2024/01/26 09:37:50;;;;;;;4.27;0.70;;;;;;;;;;5027506;28;20320;-65
2024/01/26 09:40:20;;;;;;;2.58;1.00;;;;;;;;;;4992760;28;20293;-65
2024/01/26 09:42:47;;;;;;;5.22;0.95;;;;;;;;;;4982959;28;20123;-64
2024/01/26 09:45:22;;;;;;;6.65;1.05;;;;;;;;;;4998439;28;20235;-64
2024/01/26 09:47:52;;;;;;;3.13;0.95;;;;;;;;;;4999508;28;20064;-64
2024/01/26 09:50:26;;;;;;;7.90;0.93;;;;;;;;;;4988602;28;20140;-66
2024/01/26 09:52:58;;;;;;;4.35;0.98;;;;;;;;;;4960297;28;20089;-66
2024/01/26 09:55:28;;;;;;;1.65;0.85;;;;;;;;;;4972926;28;20058;-64
2024/01/26 09:57:56;;;;;;;4.20;0.68;;;;;;;;;;4961668;28;20141;-66
2024/01/26 10:00:25;;;;;;;0.80;0.65;;;;;;;;;;4958143;28;20062;-65
2024/01/26 10:02:54;;;;;;;2.05;0.60;;;;;;;;;;4961374;28;20214;-65
2024/01/26 10:05:24;;;;;;;1.25;0.60;;;;;;;;;;4986799;28;20081;-67
2024/01/26 10:07:53;;;;;;;7.25;0.60;;;;;;;;;;4995818;28;20065;-67
2024/01/26 10:10:20;;;;;;;3.65;0.40;;;;;;;;;;4982553;28;20050;-67
2024/01/26 10:12:47;;;;;;;1.70;0.65;;;;;;;;;;4967425;28;20057;-67
2024/01/26 10:15:15;;;;;;;2.50;0.40;;;;;;;;;;4999274;28;20058;-65
2024/01/26 10:17:44;;;;;;;2.38;0.40;;;;;;;;;;4984280;28;20082;-66
2024/01/26 10:20:21;;;;;;;5.25;0.88;;;;;;;;;;4984670;28;20050;-66
2024/01/26 10:22:47;;;;;;;4.10;0.80;;;;;;;;;;4973771;28;20138;-66
2024/01/26 10:25:14;;;;;;;2.17;0.75;;;;;;;;;;4990553;28;20064;-65
2024/01/26 10:27:41;;;;;;;4.45;0.70;;;;;;;;;;4989399;28;20050;-67
2024/01/26 10:30:08;;;;;;;0.88;0.40;;;;;;;;;;4988413;28;20069;-65
2024/01/26 10:32:38;;;;;;;5.25;1.10;;;;;;;;;;4986349;28;20062;-66
2024/01/26 10:35:09;;;;;;;2.28;0.52;;;;;;;;;;4986806;28;20070;-69
2024/01/26 10:37:37;;;;;;;6.43;0.80;;;;;;;;;;4988741;28;20056;-67
2024/01/26 10:40:14;;;;;;;6.40;1.00;;;;;;;;;;4985350;28;20089;-68
2024/01/26 10:43:01;;;;;;;2.42;0.40;;;;;;;;;;4983214;28;20061;-66
2024/01/26 10:45:31;;;;;;;7.88;0.98;;;;;;;;;;4985709;28;20056;-67
2024/01/26 10:47:59;;;;;;;7.40;0.95;;;;;;;;;;4983057;28;20054;-69
2024/01/26 10:50:29;;;;;;;2.85;0.68;;;;;;;;;;4983802;28;20049;-68
2024/01/26 10:52:57;;;;;;;6.70;0.70;;;;;;;;;;4896242;28;20060;-67
2024/01/26 10:55:28;;;;;;;0.75;0.35;;;;;;;;;;4966838;28;20068;-67
2024/01/26 10:57:55;;;;;;;8.30;1.15;;;;;;;;;;4995666;28;20062;-67
2024/01/26 11:00:22;;;;;;;4.22;0.47;;;;;;;;;;4992140;28;20136;-66
2024/01/26 11:02:58;;;;;;;5.45;1.00;;;;;;;;;;4967482;28;20050;-66
2024/01/26 11:05:25;;;;;;;3.60;0.63;;;;;;;;;;4993166;28;20128;-66
2024/01/26 11:07:55;;;;;;;3.38;0.85;;;;;;;;;;4983955;28;20057;-65
2024/01/26 11:10:29;;;;;;;5.70;1.17;;;;;;;;;;4985565;28;20363;-66
2024/01/26 11:13:06;;;;;;;1.15;0.43;;;;;;;;;;4978550;28;20077;-65
2024/01/26 11:15:40;;;;;;;7.50;1.33;;;;;;;;;;4986510;28;20046;-66
2024/01/26 11:18:06;;;;;;;1.92;0.38;;;;;;;;;;5020475;28;20116;-67
2024/01/26 11:20:35;;;;;;;8.05;0.85;;;;;;;;;;4977159;28;20093;-66
2024/01/26 11:23:07;;;;;;;2.78;0.70;;;;;;;;;;4990335;28;20049;-64
2024/01/26 11:25:35;;;;;;;1.67;0.30;;;;;;;;;;4991464;28;20051;-67
2024/01/26 11:28:03;;;;;;;3.72;0.75;;;;;;;;;;4994613;28;20056;-65
2024/01/26 11:30:34;;;;;;;1.67;0.57;;;;;;;;;;4993754;28;20049;-64
2024/01/26 11:33:02;;;;;;;4.07;0.73;;;;;;;;;;4968278;28;20308;-66
2024/01/26 11:35:29;;;;;;;5.25;1.13;;;;;;;;;;4976924;28;20069;-65
2024/01/26 11:37:57;;;;;;;5.90;1.00;;;;;;;;;;4962619;28;20142;-66
2024/01/26 11:40:26;;;;;;;8.93;1.73;;;;;;;;;;4965012;28;20050;-67
2024/01/26 11:42:53;;;;;;;5.68;1.15;;;;;;;;;;4957828;28;20141;-66
2024/01/26 11:45:47;;;;;;;2.53;0.55;;;;;;;;;;4985323;28;20053;-65
2024/01/26 11:48:16;;;;;;;6.72;0.95;;;;;;;;;;4954422;28;20085;-65
2024/01/26 11:50:44;;;;;;;6.20;1.65;;;;;;;;;;4986446;28;20115;-66
2024/01/26 11:53:11;;;;;;;9.05;1.13;;;;;;;;;;4962375;28;20116;-66
2024/01/26 11:55:39;;;;;;;3.13;0.65;;;;;;;;;;4986968;28;20061;-67
2024/01/26 11:58:09;;;;;;;8.90;0.93;;;;;;;;;;4978836;28;20054;-67
2024/01/26 12:00:36;;;;;;;6.72;1.10;;;;;;;;;;4990180;28;20117;-65
2024/01/26 12:03:06;;;;;;;5.30;0.80;;;;;;;;;;4965159;28;20081;-65
2024/01/26 12:05:34;;;;;;;7.75;1.75;;;;;;;;;;4972484;28;20113;-65
2024/01/26 12:08:01;;;;;;;8.07;0.98;;;;;;;;;;4970228;28;20055;-65
2024/01/26 12:10:28;;;;;;;5.80;1.23;;;;;;;;;;4967289;28;20046;-68
2024/01/26 12:12:57;;;;;;;7.22;1.08;;;;;;;;;;4960735;28;20080;-66
2024/01/26 12:15:27;;;;;;;;;;;;;;;;;;5005729;28;20039;-66
2024/01/26 12:17:54;;;;;;;5.63;0.95;;;;;;;;;;5020958;28;20099;-66
2024/01/26 12:20:22;;;;;;;12.18;1.90;;;;;;;;;;4996155;28;20050;-67
2024/01/26 12:22:48;;;;;;;8.02;0.90;;;;;;;;;;4990217;28;20176;-65
2024/01/26 12:25:15;;;;;;;2.65;0.60;;;;;;;;;;4987174;28;20126;-67
2024/01/26 12:27:45;;;;;;;6.00;1.17;;;;;;;;;;4993832;28;20101;-65
2024/01/26 12:30:15;;;;;;;0.63;0.45;;;;;;;;;;4982580;28;20134;-65
2024/01/26 12:32:42;;;;;;;9.88;1.23;;;;;;;;;;4948748;28;20069;-66
2024/01/26 12:35:09;;;;;;;7.70;0.90;;;;;;;;;;4971201;28;20119;-66
2024/01/26 12:37:36;;;;;;;3.38;0.65;;;;;;;;;;4973216;28;20042;-67
2024/01/26 12:40:06;;;;;;;3.28;0.73;;;;;;;;;;4991704;28;20061;-67
2024/01/26 12:42:33;;;;;;;6.90;1.08;;;;;;;;;;4979410;28;20054;-66
2024/01/26 12:45:00;;;;;;;3.00;1.00;;;;;;;;;;4988258;28;20115;-66
2024/01/26 12:47:28;;;;;;;6.15;0.80;;;;;;;;;;4992275;28;20136;-67
2024/01/26 12:49:55;;;;;;;6.53;0.95;;;;;;;;;;4980859;28;20085;-66
2024/01/26 12:52:22;;;;;;;8.20;1.25;;;;;;;;;;4987226;28;20117;-65
2024/01/26 12:54:52;;;;;;;10.93;1.20;;;;;;;;;;4972557;28;20061;-67
2024/01/26 12:57:19;;;;;;;3.65;0.68;;;;;;;;;;4985096;28;20081;-68
2024/01/26 12:59:47;;;;;;;4.43;1.17;;;;;;;;;;4988534;28;20101;-68
2024/01/26 13:02:15;;;;;;;12.43;1.63;;;;;;;;;;4985351;28;20060;-65
2024/01/26 13:04:45;;;;;;;5.57;1.33;;;;;;;;;;4972822;28;20061;-68
2024/01/26 13:07:12;;;;;;;8.45;1.27;;;;;;;;;;4993367;28;20100;-66
2024/01/26 13:09:38;;;;;;;8.02;0.90;;;;;;;;;;4990187;28;20062;-66
2024/01/26 13:12:07;;;;;;;7.63;1.15;;;;;;;;;;4982232;28;20061;-66
2024/01/26 13:14:36;;;;;;;9.07;2.63;;;;;;;;;;4967811;28;20058;-66
2024/01/26 13:17:04;;;;;;;4.47;0.95;;;;;;;;;;4978017;28;20046;-67
2024/01/26 13:19:31;;;;;;;1.70;0.90;;;;;;;;;;4976213;28;20108;-66
2024/01/26 13:21:59;;;;;;;1.20;0.63;;;;;;;;;;4988180;28;20030;-67
2024/01/26 13:24:27;;;;;;;4.93;1.10;;;;;;;;;;4977121;28;20050;-65
2024/01/26 13:26:54;;;;;;;6.53;1.40;;;;;;;;;;4988817;28;20078;-65
2024/01/26 13:29:21;;;;;;;0.60;0.38;;;;;;;;;;4986904;28;20089;-66
2024/01/26 13:31:48;;;;;;;4.75;0.73;;;;;;;;;;4991299;28;20065;-66
2024/01/26 13:34:15;;;;;;;8.90;1.20;;;;;;;;;;4986442;28;20054;-70
2024/01/26 13:36:44;;;;;;;4.95;1.00;;;;;;;;;;4985460;28;20066;-65
2024/01/26 13:39:13;;;;;;;6.55;1.83;;;;;;;;;;4982011;28;20141;-70
2024/01/26 13:41:41;;;;;;;8.98;1.75;;;;;;;;;;4984522;28;20572;-67
2024/01/26 13:44:08;;;;;;;8.70;1.25;;;;;;;;;;4979660;28;20050;-65
2024/01/26 13:46:35;;;;;;;2.78;0.95;;;;;;;;;;4986720;28;20052;-69
2024/01/26 13:49:03;;;;;;;3.28;0.75;;;;;;;;;;4975825;28;20065;-65
2024/01/26 13:51:29;;;;;;;4.63;0.90;;;;;;;;;;4978542;28;20049;-68
2024/01/26 13:53:56;;;;;;;5.93;1.60;;;;;;;;;;4984428;28;20382;-66
2024/01/26 13:56:25;;;;;;;6.18;0.95;;;;;;;;;;4979922;28;20050;-67
2024/01/26 13:58:56;;;;;;;4.78;0.75;;;;;;;;;;4982471;28;20061;-67
2024/01/26 14:01:23;;;;;;;;;;;;;;;;;;4983561;28;20050;-65
2024/01/26 14:03:51;;;;;;;7.15;1.15;;;;;;;;;;4971583;28;19932;-66
2024/01/26 14:06:18;;;;;;;4.35;0.85;;;;;;;;;;4963653;28;20058;-66
2024/01/26 14:08:46;;;;;;;7.18;1.30;;;;;;;;;;4961022;28;20066;-67
2024/01/26 14:11:13;;;;;;;8.85;1.20;;;;;;;;;;4957074;28;20110;-68
2024/01/26 14:13:42;;;;;;;5.13;0.98;;;;;;;;;;4981200;28;20125;-68
2024/01/26 14:16:09;;;;;;;1.70;0.47;;;;;;;;;;4988565;28;20462;-65
2024/01/26 14:18:35;;;;;;;7.93;1.52;;;;;;;;;;4975497;28;20046;-67
2024/01/26 14:21:02;;;;;;;6.95;1.05;;;;;;;;;;4977915;28;20049;-65
2024/01/26 14:23:29;;;;;;;7.50;1.27;;;;;;;;;;4964740;28;20185;-64
2024/01/26 14:25:58;;;;;;;16.00;1.48;;;;;;;;;;4981525;28;20038;-67
2024/01/26 14:28:28;;;;;;;1.45;0.65;;;;;;;;;;4990700;28;20085;-66
2024/01/26 14:30:58;;;;;;;12.68;1.65;;;;;;;;;;4981125;28;20122;-67
2024/01/26 14:33:25;;;;;;;4.28;1.00;;;;;;;;;;4980664;28;20352;-66
2024/01/26 14:35:52;;;;;;;9.60;1.55;;;;;;;;;;4995939;28;20065;-65
2024/01/26 14:38:21;;;;;;;12.57;1.33;;;;;;;;;;4975124;28;20058;-66
2024/01/26 14:40:48;;;;;;;10.30;1.58;;;;;;;;;;4965684;28;20340;-66
2024/01/26 14:43:17;;;;;;;11.52;1.60;;;;;;;;;;4962098;28;20066;-66
2024/01/26 14:45:43;;;;;;;14.25;1.50;;;;;;;;;;4967300;28;20046;-65
2024/01/26 14:48:11;;;;;;;3.20;0.70;;;;;;;;;;4954428;28;20062;-66